createdAt,value
2022-07-29T00:00:45.480Z,58.42
2022-07-29T00:03:13.424Z,58.05
2022-07-29T00:05:41.976Z,58.19
2022-07-29T00:08:12.608Z,58.61
2022-07-29T00:10:40.951Z,58.76
2022-07-29T00:13:08.826Z,58.94
2022-07-29T00:15:36.735Z,58.99
2022-07-29T00:18:06.273Z,59.97
2022-07-29T00:20:34.248Z,61.31
2022-07-29T00:23:02.247Z,60.70
2022-07-29T00:25:30.055Z,60.17
2022-07-29T00:27:58.854Z,60.05
2022-07-29T00:30:26.685Z,61.91
2022-07-29T00:32:54.596Z,60.39
2022-07-29T00:35:41.293Z,63.69
2022-07-29T00:38:09.202Z,62.09
2022-07-29T00:40:37.035Z,63.99
2022-07-29T00:43:08.073Z,63.35
2022-07-29T00:45:36.539Z,63.20
2022-07-29T00:48:05.814Z,61.66
2022-07-29T00:50:35.784Z,62.44
2022-07-29T00:53:04.869Z,62.98
2022-07-29T00:55:32.847Z,62.24
2022-07-29T00:58:01.402Z,61.67
2022-07-29T01:00:30.815Z,60.30
2022-07-29T01:02:58.726Z,61.24
2022-07-29T01:05:50.088Z,60.12
2022-07-29T01:08:20.666Z,60.05
2022-07-29T01:10:49.022Z,60.40
2022-07-29T01:13:18.733Z,59.67
2022-07-29T01:15:50.008Z,62.99
2022-07-29T01:18:22.543Z,62.44
2022-07-29T01:21:18.447Z,63.75
2022-07-29T01:24:01.560Z,64.27
2022-07-29T01:26:44.927Z,63.05
2022-07-29T01:29:35.998Z,61.50
2022-07-29T01:32:27.343Z,61.73
2022-07-29T01:35:02.007Z,63.81
2022-07-29T01:37:34.268Z,61.97
2022-07-29T01:40:05.761Z,62.33
2022-07-29T01:42:37.882Z,64.46
2022-07-29T01:45:12.960Z,65.19
2022-07-29T01:47:46.264Z,64.64
2022-07-29T01:50:18.317Z,64.26
2022-07-29T01:52:51.936Z,66.48
2022-07-29T01:55:24.465Z,64.94
2022-07-29T01:57:52.349Z,69.33
2022-07-29T02:00:22.578Z,70.03
2022-07-29T02:02:52.787Z,66.09
2022-07-29T02:05:22.693Z,67.35
2022-07-29T02:07:51.953Z,66.83
2022-07-29T02:10:25.969Z,66.98
2022-07-29T02:12:57.686Z,65.80
2022-07-29T02:15:29.213Z,70.15
2022-07-29T02:18:01.924Z,68.04
2022-07-29T02:20:31.042Z,69.10
2022-07-29T02:23:01.762Z,72.11
2022-07-29T02:25:38.180Z,70.92
2022-07-29T02:28:08.311Z,71.87
2022-07-29T02:30:41.313Z,74.62
2022-07-29T02:33:10.804Z,74.31
2022-07-29T02:35:40.707Z,72.07
2022-07-29T02:38:28.280Z,68.58
2022-07-29T02:40:58.860Z,68.88
2022-07-29T02:43:27.867Z,68.75
2022-07-29T02:45:58.908Z,67.75
2022-07-29T02:48:36.647Z,68.90
2022-07-29T02:51:43.408Z,70.56
2022-07-29T02:54:08.871Z,73.05
2022-07-29T02:56:38.644Z,73.59
2022-07-29T02:59:11.186Z,75.91
2022-07-29T03:01:44.597Z,76.65
2022-07-29T03:04:15.421Z,75.33
2022-07-29T03:06:46.851Z,74.47
2022-07-29T03:09:16.000Z,77.15
2022-07-29T03:11:50.017Z,77.34
2022-07-29T03:14:21.238Z,77.44
2022-07-29T03:16:52.013Z,76.47
2022-07-29T03:19:21.217Z,75.52
2022-07-29T03:21:49.580Z,75.70
2022-07-29T03:24:28.265Z,73.98
2022-07-29T03:26:57.546Z,71.69
2022-07-29T03:29:25.942Z,74.38
2022-07-29T03:32:03.704Z,72.47
2022-07-29T03:34:35.322Z,72.82
2022-07-29T03:37:03.204Z,73.10
2022-07-29T03:39:35.280Z,74.73
2022-07-29T03:42:04.099Z,77.02
2022-07-29T03:44:34.737Z,74.01
2022-07-29T03:47:06.319Z,74.73
2022-07-29T03:49:37.940Z,72.29
2022-07-29T03:52:07.597Z,71.48
2022-07-29T03:54:35.738Z,71.47
2022-07-29T03:57:04.976Z,71.69
2022-07-29T03:59:34.907Z,69.98
2022-07-29T04:02:05.485Z,71.32
2022-07-29T04:04:35.515Z,72.42
2022-07-29T04:07:03.359Z,70.63
2022-07-29T04:09:32.083Z,70.82
2022-07-29T04:12:03.234Z,70.32
2022-07-29T04:14:32.826Z,71.55
2022-07-29T04:17:00.925Z,70.98
2022-07-29T04:19:30.405Z,75.33
2022-07-29T04:21:59.886Z,70.98
2022-07-29T04:24:28.031Z,72.11
2022-07-29T04:26:55.894Z,70.49
2022-07-29T04:29:23.709Z,71.90
2022-07-29T04:31:51.593Z,70.74
2022-07-29T04:34:20.015Z,72.45
2022-07-29T04:36:49.635Z,73.22
2022-07-29T04:39:22.798Z,74.58
2022-07-29T04:41:52.571Z,77.96
2022-07-29T04:44:22.787Z,78.33
2022-07-29T04:46:57.033Z,77.99
2022-07-29T04:49:25.043Z,80.26
2022-07-29T04:51:54.360Z,80.22
2022-07-29T04:54:22.277Z,79.87
2022-07-29T04:56:50.211Z,80.69
2022-07-29T04:59:18.064Z,81.17
2022-07-29T05:01:46.055Z,81.57
2022-07-29T05:04:14.190Z,81.41
2022-07-29T05:06:42.342Z,84.61
2022-07-29T05:09:11.595Z,83.19
2022-07-29T05:11:39.372Z,84.41
2022-07-29T05:14:07.223Z,85.87
2022-07-29T05:16:35.559Z,86.10
2022-07-29T05:19:03.497Z,85.73
2022-07-29T05:21:31.494Z,84.76
2022-07-29T05:23:59.406Z,85.02
2022-07-29T05:26:28.652Z,84.98
2022-07-29T05:28:57.173Z,85.16
2022-07-29T05:31:25.172Z,85.72
2022-07-29T05:33:53.021Z,85.18
2022-07-29T05:36:21.007Z,85.94
2022-07-29T05:38:49.206Z,85.91
2022-07-29T05:41:19.958Z,85.42
2022-07-29T05:43:49.502Z,84.41
2022-07-29T05:46:17.450Z,84.86
2022-07-29T05:48:45.581Z,83.09
2022-07-29T05:51:13.625Z,85.27
2022-07-29T05:53:41.485Z,83.91
2022-07-29T05:56:09.598Z,83.59
2022-07-29T05:58:37.788Z,83.88
2022-07-29T06:01:07.129Z,84.87
2022-07-29T06:03:35.678Z,83.39
2022-07-29T06:06:03.588Z,84.59
2022-07-29T06:08:31.507Z,85.05
2022-07-29T06:10:59.352Z,84.15
2022-07-29T06:13:27.355Z,84.72
2022-07-29T06:15:55.329Z,85.91
2022-07-29T06:18:24.984Z,85.80
2022-07-29T06:20:52.937Z,85.20
2022-07-29T06:23:21.615Z,84.77
2022-07-29T06:25:49.519Z,84.88
2022-07-29T06:28:17.417Z,85.05
2022-07-29T06:30:45.297Z,83.44
2022-07-29T06:33:18.865Z,83.16
2022-07-29T06:35:53.399Z,81.92
2022-07-29T06:38:31.231Z,82.46
2022-07-29T06:41:03.280Z,81.29
2022-07-29T06:43:34.866Z,81.79
2022-07-29T06:46:04.095Z,80.63
2022-07-29T06:48:32.779Z,80.16
2022-07-29T06:51:02.748Z,79.16
2022-07-29T06:53:31.405Z,78.22
2022-07-29T06:56:00.261Z,78.09
2022-07-29T06:58:28.860Z,77.68
2022-07-29T07:00:57.020Z,79.00
2022-07-29T07:03:25.007Z,79.31
2022-07-29T07:05:54.732Z,78.13
2022-07-29T07:08:24.855Z,77.78
2022-07-29T07:10:52.907Z,77.42
2022-07-29T07:13:20.949Z,77.20
2022-07-29T07:15:49.476Z,77.35
2022-07-29T07:18:18.181Z,74.59
2022-07-29T07:20:46.691Z,74.75
2022-07-29T07:23:14.542Z,76.65
2022-07-29T07:25:45.456Z,75.42
2022-07-29T07:28:13.359Z,75.65
2022-07-29T07:30:41.910Z,74.49
2022-07-29T07:33:11.138Z,73.17
2022-07-29T07:35:39.076Z,75.21
2022-07-29T07:38:08.624Z,70.85
2022-07-29T07:40:37.135Z,72.53
2022-07-29T07:43:06.558Z,73.74
2022-07-29T07:45:34.803Z,72.67
2022-07-29T07:48:02.816Z,72.15
2022-07-29T07:50:30.778Z,73.13
2022-07-29T07:52:59.770Z,72.19
2022-07-29T07:55:28.411Z,69.71
2022-07-29T07:57:57.074Z,71.05
2022-07-29T08:00:26.581Z,70.52
2022-07-29T08:02:54.591Z,71.94
2022-07-29T08:05:22.643Z,71.49
2022-07-29T08:07:50.834Z,71.51
2022-07-29T08:10:40.991Z,70.57
2022-07-29T08:13:10.153Z,71.33
2022-07-29T08:15:41.699Z,74.74
2022-07-29T08:18:09.814Z,72.70
2022-07-29T08:20:39.389Z,73.57
2022-07-29T08:23:10.479Z,74.05
2022-07-29T08:25:40.236Z,71.39
2022-07-29T08:28:08.441Z,73.33
2022-07-29T08:30:36.400Z,72.84
2022-07-29T08:33:05.745Z,72.49
2022-07-29T08:35:35.545Z,71.67
2022-07-29T08:38:05.558Z,72.28
2022-07-29T08:40:33.582Z,70.52
2022-07-29T08:43:06.583Z,71.12
2022-07-29T08:45:48.228Z,71.05
2022-07-29T08:48:22.786Z,70.64
2022-07-29T08:50:54.707Z,71.34
2022-07-29T08:53:28.263Z,71.65
2022-07-29T08:55:57.437Z,70.44
2022-07-29T08:58:26.635Z,70.88
2022-07-29T09:00:57.946Z,73.38
2022-07-29T09:03:32.601Z,74.08
2022-07-29T09:06:01.035Z,73.11
2022-07-29T09:08:29.793Z,74.77
2022-07-29T09:10:58.286Z,74.96
2022-07-29T09:13:27.123Z,74.36
2022-07-29T09:15:55.278Z,75.99
2022-07-29T09:18:41.410Z,75.95
2022-07-29T09:21:28.589Z,80.97
2022-07-29T09:24:08.678Z,78.64
2022-07-29T09:26:38.465Z,78.83
2022-07-29T09:29:13.755Z,79.22
2022-07-29T09:31:45.012Z,80.61
2022-07-29T09:34:16.971Z,80.68
2022-07-29T09:36:47.932Z,78.32
2022-07-29T09:39:17.806Z,77.70
2022-07-29T09:41:50.911Z,77.40
2022-07-29T09:44:19.365Z,77.54
2022-07-29T09:47:07.075Z,77.15
2022-07-29T09:49:38.289Z,77.81
2022-07-29T09:52:09.921Z,77.66
2022-07-29T09:54:41.547Z,75.68
2022-07-29T09:57:13.504Z,79.06
2022-07-29T09:59:50.536Z,77.29
2022-07-29T10:02:23.795Z,76.11
2022-07-29T10:04:53.749Z,76.98
2022-07-29T10:07:21.831Z,74.60
2022-07-29T10:09:55.433Z,76.78
2022-07-29T10:12:24.519Z,77.88
2022-07-29T10:14:53.246Z,77.04
2022-07-29T10:17:22.922Z,77.39
2022-07-29T10:19:51.653Z,79.74
2022-07-29T10:22:43.565Z,78.42
2022-07-29T10:25:11.402Z,77.97
2022-07-29T10:27:40.171Z,77.44
2022-07-29T10:30:09.585Z,77.89
2022-07-29T10:32:54.260Z,78.26
2022-07-29T10:35:39.410Z,79.49
2022-07-29T10:38:29.945Z,80.24
2022-07-29T10:41:32.436Z,79.54
2022-07-29T10:44:19.122Z,78.11
2022-07-29T10:46:48.350Z,78.78
2022-07-29T10:49:18.301Z,77.93
2022-07-29T10:51:58.150Z,79.14
2022-07-29T10:54:54.874Z,78.98
2022-07-29T10:57:54.127Z,79.28
2022-07-29T11:00:33.918Z,78.59
2022-07-29T11:03:04.844Z,80.28
2022-07-29T11:05:59.800Z,79.69
2022-07-29T11:08:28.973Z,79.87
2022-07-29T11:11:37.707Z,82.37
2022-07-29T11:14:10.199Z,82.76
2022-07-29T11:19:52.832Z,83.79
2022-07-29T11:22:34.971Z,84.39
2022-07-29T11:28:19.564Z,86.97
2022-07-29T11:30:56.246Z,89.33
2022-07-29T11:33:54.470Z,88.02
2022-07-29T11:36:28.054Z,82.45
2022-07-29T11:39:36.232Z,80.27
2022-07-29T11:42:41.968Z,80.55
2022-07-29T11:45:41.397Z,78.13
2022-07-29T11:48:28.912Z,77.07
2022-07-29T11:50:55.569Z,78.26
2022-07-29T11:53:28.951Z,73.45
2022-07-29T11:56:02.784Z,72.46
2022-07-29T11:58:32.549Z,73.98
2022-07-29T12:01:04.731Z,73.88
2022-07-29T12:03:36.957Z,75.21
2022-07-29T12:06:17.588Z,71.99
2022-07-29T12:08:47.343Z,74.37
2022-07-29T12:11:20.900Z,73.26
2022-07-29T12:13:50.016Z,69.60
2022-07-29T12:16:25.911Z,71.57
2022-07-29T12:19:00.163Z,71.69
2022-07-29T12:21:28.712Z,72.24
2022-07-29T12:24:02.085Z,70.58
2022-07-29T12:26:35.723Z,71.98
2022-07-29T12:29:04.502Z,72.22
2022-07-29T12:31:42.711Z,68.73
2022-07-29T12:34:16.079Z,70.86
2022-07-29T12:36:44.952Z,68.31
2022-07-29T12:39:13.679Z,66.02
2022-07-29T12:41:41.593Z,66.49
2022-07-29T12:44:09.760Z,65.69
2022-07-29T12:46:37.912Z,64.82
2022-07-29T12:49:07.918Z,62.02
2022-07-29T12:51:38.826Z,62.61
2022-07-29T12:54:12.264Z,59.58
2022-07-29T12:56:43.708Z,57.57
2022-07-29T12:59:17.976Z,57.78
2022-07-29T13:01:48.001Z,57.99
2022-07-29T13:04:27.540Z,55.60
2022-07-29T13:07:04.901Z,57.12
2022-07-29T13:09:40.476Z,56.80
2022-07-29T13:12:11.150Z,55.37
2022-07-29T13:14:40.640Z,56.68
2022-07-29T13:17:10.293Z,57.16
2022-07-29T13:19:41.364Z,55.73
2022-07-29T13:22:13.466Z,56.13
2022-07-29T13:24:51.961Z,55.48
2022-07-29T13:27:21.203Z,55.01
2022-07-29T13:29:49.770Z,54.96
2022-07-29T13:32:17.843Z,55.99
2022-07-29T13:34:46.982Z,55.76
2022-07-29T13:37:17.855Z,56.81
2022-07-29T13:39:53.169Z,54.78
2022-07-29T13:42:21.509Z,53.38
2022-07-29T13:44:49.731Z,53.38
2022-07-29T13:47:18.071Z,56.62
2022-07-29T13:49:46.026Z,54.87
2022-07-29T13:52:15.137Z,57.00
2022-07-29T13:54:44.624Z,57.51
2022-07-29T13:57:12.778Z,57.11
2022-07-29T13:59:41.331Z,58.07
2022-07-29T14:02:09.540Z,57.04
2022-07-29T14:04:39.465Z,55.20
2022-07-29T14:07:07.829Z,54.31
2022-07-29T14:09:41.118Z,55.37
2022-07-29T14:12:11.642Z,53.47
2022-07-29T14:14:39.700Z,55.14
2022-07-29T14:17:08.375Z,55.75
2022-07-29T14:19:38.842Z,51.58
2022-07-29T14:22:08.565Z,54.65
2022-07-29T14:24:37.485Z,52.98
2022-07-29T14:27:06.205Z,55.92
2022-07-29T14:29:38.257Z,52.89
2022-07-29T14:32:07.430Z,51.10
2022-07-29T14:34:35.653Z,50.15
2022-07-29T14:37:03.961Z,48.42
2022-07-29T14:39:32.185Z,49.59
2022-07-29T14:42:00.905Z,47.68
2022-07-29T14:44:32.324Z,52.28
2022-07-29T14:47:07.638Z,50.73
2022-07-29T14:49:36.608Z,49.39
2022-07-29T14:52:04.957Z,48.88
2022-07-29T14:54:32.842Z,47.92
2022-07-29T14:57:01.252Z,47.04
2022-07-29T14:59:29.399Z,47.07
2022-07-29T15:01:57.569Z,46.84
2022-07-29T15:04:27.136Z,44.66
2022-07-29T15:06:55.065Z,45.69
2022-07-29T15:09:24.177Z,44.43
2022-07-29T15:11:52.032Z,44.90
2022-07-29T15:14:20.125Z,44.22
2022-07-29T15:16:48.370Z,44.09
2022-07-29T15:19:16.492Z,44.15
2022-07-29T15:21:48.582Z,47.92
2022-07-29T15:24:17.430Z,49.68
2022-07-29T15:26:46.024Z,45.02
2022-07-29T15:29:14.452Z,46.94
2022-07-29T15:31:42.716Z,46.94
2022-07-29T15:34:10.785Z,48.58
2022-07-29T15:36:54.302Z,50.02
2022-07-29T15:39:24.219Z,51.58
2022-07-29T15:41:52.775Z,48.46
2022-07-29T15:44:21.269Z,49.09
2022-07-29T15:47:05.134Z,47.34
2022-07-29T15:49:47.243Z,49.13
2022-07-29T15:52:19.050Z,48.65
2022-07-29T15:54:55.852Z,50.32
2022-07-29T15:57:24.529Z,50.96
2022-07-29T15:59:52.566Z,51.86
2022-07-29T16:02:20.692Z,50.02
2022-07-29T16:04:48.708Z,49.65
2022-07-29T16:07:17.020Z,48.66
2022-07-29T16:09:49.382Z,50.29
2022-07-29T16:12:21.970Z,48.37
2022-07-29T16:14:51.212Z,49.72
2022-07-29T16:17:20.182Z,51.09
2022-07-29T16:19:48.378Z,50.07
2022-07-29T16:22:16.588Z,50.97
2022-07-29T16:24:44.580Z,50.89
2022-07-29T16:27:12.523Z,50.51
2022-07-29T16:29:41.848Z,51.66
2022-07-29T16:32:09.803Z,50.82
2022-07-29T16:34:37.697Z,52.74
2022-07-29T16:37:05.876Z,52.21
2022-07-29T16:39:34.133Z,52.56
2022-07-29T16:42:05.021Z,52.50
2022-07-29T16:44:33.670Z,53.61
2022-07-29T16:47:04.302Z,54.26
2022-07-29T16:49:32.232Z,54.81
2022-07-29T16:52:00.098Z,55.05
2022-07-29T16:54:28.937Z,53.90
2022-07-29T16:56:57.307Z,53.90
2022-07-29T16:59:25.450Z,53.89
2022-07-29T17:01:53.425Z,53.25
2022-07-29T17:04:22.948Z,54.04
2022-07-29T17:06:50.992Z,53.24
2022-07-29T17:09:18.917Z,53.77
2022-07-29T17:11:53.111Z,53.12
2022-07-29T17:14:24.050Z,52.52
2022-07-29T17:17:00.177Z,52.96
2022-07-29T17:19:32.170Z,53.64
2022-07-29T17:22:13.066Z,53.34
2022-07-29T17:24:44.021Z,52.38
2022-07-29T17:27:11.964Z,52.08
2022-07-29T17:29:40.159Z,54.33
2022-07-29T17:32:09.092Z,52.53
2022-07-29T17:34:39.030Z,54.23
2022-07-29T17:37:07.926Z,55.28
2022-07-29T17:39:36.168Z,54.06
2022-07-29T17:42:05.074Z,55.18
2022-07-29T17:44:36.292Z,55.38
2022-07-29T17:47:04.847Z,56.07
2022-07-29T17:49:32.823Z,55.03
2022-07-29T17:52:05.896Z,54.68
2022-07-29T17:54:33.817Z,55.64
2022-07-29T17:57:02.128Z,56.33
2022-07-29T17:59:30.187Z,56.53
2022-07-29T18:01:58.117Z,56.75
2022-07-29T18:04:26.067Z,55.49
2022-07-29T18:06:53.965Z,56.04
2022-07-29T18:09:23.267Z,56.07
2022-07-29T18:11:52.726Z,56.33
2022-07-29T18:14:20.651Z,56.49
2022-07-29T18:16:48.606Z,57.43
2022-07-29T18:19:17.036Z,59.62
2022-07-29T18:21:51.829Z,55.90
2022-07-29T18:24:25.599Z,55.70
2022-07-29T18:26:53.833Z,56.40
2022-07-29T18:29:22.278Z,56.56
2022-07-29T18:31:50.321Z,56.76
2022-07-29T18:34:18.282Z,58.29
2022-07-29T18:36:46.793Z,57.95
2022-07-29T18:39:20.246Z,57.40
2022-07-29T18:41:51.392Z,57.98
2022-07-29T18:44:22.635Z,56.82
2022-07-29T18:46:52.116Z,59.25
2022-07-29T18:49:20.569Z,59.37
2022-07-29T18:51:49.155Z,58.49
2022-07-29T18:54:18.377Z,59.54
2022-07-29T18:56:47.144Z,59.31
2022-07-29T18:59:19.743Z,63.14
2022-07-29T19:01:48.581Z,63.99
2022-07-29T19:04:17.121Z,63.87
2022-07-29T19:06:45.129Z,64.60
2022-07-29T19:09:13.079Z,65.19
2022-07-29T19:11:41.693Z,65.85
2022-07-29T19:14:09.615Z,67.09
2022-07-29T19:16:38.863Z,68.35
2022-07-29T19:19:08.607Z,67.63
2022-07-29T19:21:36.491Z,69.73
2022-07-29T19:24:07.757Z,70.17
2022-07-29T19:26:39.319Z,69.47
2022-07-29T19:29:07.318Z,71.03
2022-07-29T19:31:35.276Z,71.88
2022-07-29T19:34:04.648Z,72.85
2022-07-29T19:36:32.524Z,73.57
2022-07-29T19:39:00.661Z,73.85
2022-07-29T19:41:28.684Z,74.82
2022-07-29T19:43:56.611Z,76.19
2022-07-29T19:46:25.551Z,76.31
2022-07-29T19:48:54.080Z,77.55
2022-07-29T19:51:23.934Z,78.05
2022-07-29T19:53:52.446Z,78.84
2022-07-29T19:56:20.290Z,80.42
2022-07-29T19:58:48.401Z,80.15
2022-07-29T20:01:16.703Z,80.10
2022-07-29T20:03:44.808Z,79.95
2022-07-29T20:06:12.707Z,81.20
2022-07-29T20:08:42.060Z,82.55
2022-07-29T20:11:09.889Z,82.39
2022-07-29T20:13:37.878Z,83.83
2022-07-29T20:16:08.254Z,84.50
2022-07-29T20:18:36.241Z,84.78
2022-07-29T20:21:04.897Z,85.89
2022-07-29T20:23:33.431Z,86.30
2022-07-29T20:26:06.103Z,86.12
2022-07-29T20:28:37.174Z,86.74
2022-07-29T20:31:05.101Z,87.38
2022-07-29T20:33:33.092Z,87.94
2022-07-29T20:36:00.924Z,89.61
2022-07-29T20:38:30.627Z,89.06
2022-07-29T20:40:58.808Z,89.59
2022-07-29T20:43:28.173Z,90.41
2022-07-29T20:45:56.143Z,90.59
2022-07-29T20:48:24.155Z,91.03
2022-07-29T20:50:52.952Z,91.09
2022-07-29T20:53:20.997Z,92.04
2022-07-29T20:55:48.956Z,93.45
2022-07-29T20:58:17.287Z,94.11
2022-07-29T21:00:46.666Z,95.25
2022-07-29T21:03:14.702Z,94.40
2022-07-29T21:05:44.030Z,95.65
2022-07-29T21:08:12.425Z,95.98
2022-07-29T21:10:40.328Z,95.18
2022-07-29T21:13:08.153Z,94.94
2022-07-29T21:15:36.389Z,95.21
2022-07-29T21:18:16.060Z,94.60
2022-07-29T21:20:43.959Z,94.99
2022-07-29T21:23:11.757Z,96.00
2022-07-29T21:25:39.619Z,95.97
2022-07-29T21:28:24.584Z,95.78
2022-07-29T21:30:52.503Z,96.44
2022-07-29T21:33:21.894Z,96.78
2022-07-29T21:38:38.867Z,98.13
2022-07-29T21:41:07.257Z,98.71
2022-07-29T21:43:35.175Z,99.71
2022-07-29T21:46:03.040Z,99.93
2022-07-29T21:48:32.300Z,100.00
2022-07-29T21:51:00.362Z,100.00
2022-07-29T21:53:28.200Z,100.00
2022-07-29T21:55:56.057Z,100.00
2022-07-29T21:58:24.870Z,99.47
2022-07-29T22:00:53.960Z,98.87
2022-07-29T22:03:21.992Z,100.00
2022-07-29T22:05:51.221Z,100.00
2022-07-29T22:08:21.095Z,100.00
2022-07-29T22:10:48.903Z,100.00
2022-07-29T22:13:16.771Z,100.00
2022-07-29T22:15:47.169Z,100.00
2022-07-29T22:18:19.489Z,100.00
2022-07-29T22:20:49.317Z,100.00
2022-07-29T22:23:18.635Z,100.00
2022-07-29T22:25:46.539Z,100.00
2022-07-29T22:28:14.446Z,100.00
2022-07-29T22:30:42.441Z,100.00
2022-07-29T22:33:17.982Z,100.00
2022-07-29T22:35:48.958Z,100.00
2022-07-29T22:38:18.838Z,100.00
2022-07-29T22:40:46.972Z,100.00
2022-07-29T22:43:16.941Z,100.00
2022-07-29T22:45:44.854Z,100.00
2022-07-29T22:48:12.895Z,100.00
2022-07-29T22:50:42.025Z,100.00
2022-07-29T22:53:09.903Z,100.00
2022-07-29T22:55:39.117Z,100.00
2022-07-29T22:58:07.065Z,100.00
2022-07-29T23:00:35.032Z,100.00
2022-07-29T23:03:02.847Z,100.00
2022-07-29T23:05:30.808Z,100.00
2022-07-29T23:07:58.646Z,100.00
2022-07-29T23:10:26.653Z,100.00
2022-07-29T23:12:55.953Z,100.00
2022-07-29T23:15:24.094Z,100.00
2022-07-29T23:17:51.953Z,100.00
2022-07-29T23:20:19.840Z,100.00
2022-07-29T23:22:47.651Z,100.00
2022-07-29T23:25:15.636Z,100.00
2022-07-29T23:27:43.483Z,100.00
2022-07-29T23:30:13.573Z,100.00
2022-07-29T23:32:41.439Z,100.00
2022-07-29T23:35:10.791Z,100.00
2022-07-29T23:37:39.173Z,100.00
2022-07-29T23:40:13.632Z,100.00
2022-07-29T23:42:42.909Z,100.00
2022-07-29T23:45:13.382Z,100.00
2022-07-29T23:47:41.449Z,100.00
2022-07-29T23:50:12.483Z,100.00
2022-07-29T23:52:41.965Z,100.00
2022-07-29T23:55:37.704Z,100.00
2022-07-29T23:57:59.182Z,100.00
